Time;durP1;ratioP1;P1;durP2;ratioP2;P2;SDS_P1;SDS_P2;PMS_P1;PMS_P2;Temp;Humidity;BMP_temperature;BMP_pressure;BME280_temperature;BME280_humidity;BME280_pressure;Samples;Min_cycle;Max_cycle;Signal;HPM_P1;HPM_P2
2023/10/26 00:01:03;;;;;;;0.50;0.43;;;10.50;99.90;;;;;;5090788;28;20526;-84
2023/10/26 00:03:30;;;;;;;7.93;1.37;;;10.60;99.90;;;;;;5094542;28;20436;-84
2023/10/26 00:05:56;;;;;;;8.80;5.07;;;10.60;99.90;;;;;;5094292;28;20456;-84
2023/10/26 00:08:23;;;;;;;0.50;0.40;;;10.50;99.90;;;;;;5094161;28;20434;-84
2023/10/26 00:10:51;;;;;;;2.30;2.20;;;10.50;99.90;;;;;;5095236;28;20435;-83
2023/10/26 00:13:18;;;;;;;0.50;0.40;;;10.50;99.90;;;;;;5076173;28;20881;-84
2023/10/26 00:15:46;;;;;;;3.73;2.60;;;10.40;99.90;;;;;;5074255;28;20473;-83
2023/10/26 00:18:13;;;;;;;9.15;1.58;;;10.40;99.90;;;;;;5074132;28;20571;-83
2023/10/26 00:20:40;;;;;;;1.60;1.13;;;10.40;99.90;;;;;;5078493;28;20227;-82
2023/10/26 00:23:07;;;;;;;0.50;0.50;;;10.40;99.90;;;;;;5077255;28;20229;-83
2023/10/26 00:25:34;;;;;;;0.50;0.40;;;10.40;99.90;;;;;;5073765;28;20215;-82
2023/10/26 00:28:00;;;;;;;1.60;1.50;;;10.40;99.90;;;;;;5073624;28;20197;-83
2023/10/26 00:30:27;;;;;;;1.02;1.02;;;10.40;99.90;;;;;;5073199;28;20194;-82
2023/10/26 00:32:55;;;;;;;0.50;0.40;;;10.40;99.90;;;;;;5073472;28;20249;-83
2023/10/26 00:35:22;;;;;;;2.22;0.85;;;10.40;99.90;;;;;;5075188;28;20990;-82
2023/10/26 00:37:49;;;;;;;0.50;0.50;;;10.40;99.90;;;;;;5093091;28;20715;-83
2023/10/26 00:40:16;;;;;;;0.50;0.40;;;10.40;99.90;;;;;;5093371;28;20548;-83
2023/10/26 00:42:43;;;;;;;0.50;0.40;;;10.30;99.90;;;;;;5093928;28;20444;-83
2023/10/26 00:45:10;;;;;;;0.50;0.50;;;10.40;99.90;;;;;;5093880;28;20456;-84
2023/10/26 00:47:37;;;;;;;0.40;0.40;;;10.30;99.90;;;;;;5073075;28;20381;-81
2023/10/26 00:50:07;;;;;;;0.50;0.50;;;10.30;99.90;;;;;;5072848;28;20653;-83
2023/10/26 00:52:35;;;;;;;0.80;0.80;;;10.40;99.90;;;;;;5080506;28;20201;-83
2023/10/26 00:55:04;;;;;;;1.30;1.23;;;10.40;99.90;;;;;;5072926;28;20727;-84
2023/10/26 00:57:32;;;;;;;4.20;3.50;;;10.40;99.90;;;;;;5073053;28;20472;-83
2023/10/26 01:00:00;;;;;;;0.60;0.60;;;10.40;99.90;;;;;;5073464;28;20443;-84
2023/10/26 01:02:27;;;;;;;1.92;1.73;;;10.40;99.90;;;;;;5072703;28;20441;-84
2023/10/26 01:04:54;;;;;;;0.50;0.50;;;10.40;99.90;;;;;;5073179;28;20249;-83
2023/10/26 01:07:22;;;;;;;4.73;4.30;;;10.40;99.90;;;;;;5072897;28;20276;-84
2023/10/26 01:09:49;;;;;;;0.60;0.60;;;10.40;99.90;;;;;;5073030;28;20432;-84
2023/10/26 01:12:16;;;;;;;3.92;2.70;;;10.40;99.90;;;;;;5073394;28;20433;-83
2023/10/26 01:14:43;;;;;;;2.43;2.33;;;10.30;99.90;;;;;;5075100;28;20215;-83
2023/10/26 01:17:11;;;;;;;2.15;1.50;;;10.40;99.90;;;;;;5076524;28;20433;-83
2023/10/26 01:19:40;;;;;;;0.50;0.40;;;10.30;99.90;;;;;;5068873;28;20623;-81
2023/10/26 01:22:09;;;;;;;2.33;2.13;;;10.30;99.90;;;;;;5076125;28;20443;-82
2023/10/26 01:24:36;;;;;;;2.75;2.55;;;10.30;99.90;;;;;;5076230;28;20637;-84
2023/10/26 01:27:04;;;;;;;0.97;0.97;;;10.30;99.90;;;;;;5075855;28;20376;-82
2023/10/26 01:29:31;;;;;;;1.90;1.50;;;10.30;99.90;;;;;;5095213;28;20468;-84
2023/10/26 01:31:58;;;;;;;2.73;1.33;;;10.30;99.90;;;;;;5096833;28;20438;-83
2023/10/26 01:34:25;;;;;;;0.60;0.60;;;10.30;99.90;;;;;;5096378;28;20957;-84
2023/10/26 01:36:52;;;;;;;2.20;2.00;;;10.30;99.90;;;;;;5096023;28;20209;-84
2023/10/26 01:39:20;;;;;;;4.43;4.18;;;10.20;99.90;;;;;;5095697;28;20482;-83
2023/10/26 01:41:47;;;;;;;1.53;1.43;;;10.20;99.90;;;;;;5096021;28;20289;-81
2023/10/26 01:44:14;;;;;;;0.50;0.40;;;10.20;99.90;;;;;;5095778;28;20463;-84
2023/10/26 01:46:41;;;;;;;2.55;2.20;;;10.20;99.90;;;;;;5068318;28;20453;-83
2023/10/26 01:49:08;;;;;;;0.50;0.40;;;10.20;99.90;;;;;;5076252;28;20187;-83
2023/10/26 01:51:35;;;;;;;0.50;0.50;;;10.20;99.90;;;;;;5075637;28;20194;-83
2023/10/26 01:54:01;;;;;;;1.85;1.75;;;10.20;99.90;;;;;;5075935;28;20511;-83
2023/10/26 01:56:30;;;;;;;3.58;3.25;;;10.20;99.90;;;;;;5075955;28;20222;-81
2023/10/26 01:58:57;;;;;;;1.53;1.43;;;10.20;99.90;;;;;;5075668;28;20213;-82
2023/10/26 02:01:24;;;;;;;3.03;0.90;;;10.20;99.90;;;;;;5075551;28;20519;-82
2023/10/26 02:03:50;;;;;;;1.20;1.20;;;10.20;99.90;;;;;;5075824;28;20437;-81
2023/10/26 02:06:17;;;;;;;3.42;1.70;;;10.10;99.90;;;;;;5085543;28;20456;-82
2023/10/26 02:08:44;;;;;;;1.65;1.58;;;10.10;99.90;;;;;;5097291;28;20194;-83
2023/10/26 02:11:11;;;;;;;2.97;1.77;;;10.10;99.90;;;;;;5096976;28;20216;-82
2023/10/26 02:13:40;;;;;;;1.75;1.67;;;10.10;99.90;;;;;;5088131;28;20212;-84
2023/10/26 02:16:07;;;;;;;2.08;1.98;;;10.10;99.90;;;;;;5096050;28;20235;-83
2023/10/26 02:18:34;;;;;;;3.47;3.17;;;10.10;99.90;;;;;;5087360;28;20300;-83
2023/10/26 02:21:01;;;;;;;3.43;2.10;;;10.10;99.90;;;;;;5095419;28;20194;-84
2023/10/26 02:23:29;;;;;;;2.35;2.25;;;10.10;99.90;;;;;;5095795;28;20436;-83
2023/10/26 02:25:57;;;;;;;0.50;0.40;;;10.10;99.90;;;;;;5095151;28;20206;-84
2023/10/26 02:28:25;;;;;;;0.50;0.40;;;10.00;99.90;;;;;;5095575;28;20436;-82
2023/10/26 02:30:53;;;;;;;1.00;1.00;;;10.00;99.90;;;;;;5094870;28;20432;-83
2023/10/26 02:33:20;;;;;;;0.50;0.40;;;10.00;99.90;;;;;;5095571;28;20443;-85
2023/10/26 02:35:46;;;;;;;12.40;7.33;;;10.00;99.90;;;;;;5095368;28;20452;-83
2023/10/26 02:38:13;;;;;;;4.43;3.53;;;10.00;99.90;;;;;;5095136;28;20994;-83
2023/10/26 02:40:40;;;;;;;0.50;0.40;;;10.10;99.90;;;;;;5094865;28;20428;-80
2023/10/26 02:43:07;;;;;;;1.13;1.13;;;10.10;99.90;;;;;;5094981;28;20435;-84
2023/10/26 02:45:34;;;;;;;0.50;0.50;;;10.10;99.90;;;;;;5094667;28;20459;-81
2023/10/26 02:48:03;;;;;;;2.93;1.60;;;10.10;99.90;;;;;;5094952;28;20186;-83
2023/10/26 02:50:30;;;;;;;11.43;4.47;;;10.10;99.90;;;;;;5095047;28;20447;-83
2023/10/26 02:52:57;;;;;;;4.82;2.92;;;10.10;99.90;;;;;;5094875;28;20436;-83
2023/10/26 02:55:25;;;;;;;0.93;0.93;;;10.10;99.90;;;;;;5086483;28;20221;-83
2023/10/26 02:57:52;;;;;;;8.93;7.75;;;10.10;99.90;;;;;;5075124;28;20476;-83
2023/10/26 03:00:19;;;;;;;2.65;2.13;;;10.00;99.90;;;;;;5074820;28;20205;-83
2023/10/26 03:02:46;;;;;;;4.32;3.83;;;10.00;99.90;;;;;;5074406;28;20201;-82
2023/10/26 03:05:14;;;;;;;0.50;0.40;;;10.00;99.90;;;;;;5076629;28;20218;-82
2023/10/26 03:07:41;;;;;;;18.15;1.35;;;10.00;99.90;;;;;;5073447;28;20220;-81
2023/10/26 03:10:09;;;;;;;1.27;1.27;;;10.10;99.90;;;;;;5070525;28;20198;-85
2023/10/26 03:12:35;;;;;;;2.57;0.77;;;10.10;99.90;;;;;;5073974;28;20436;-84
2023/10/26 03:15:02;;;;;;;0.50;0.40;;;10.10;99.90;;;;;;5071500;28;20457;-85
2023/10/26 03:17:29;;;;;;;3.20;3.00;;;10.00;99.90;;;;;;5070989;28;20277;-85
2023/10/26 03:19:56;;;;;;;3.83;3.50;;;10.00;99.90;;;;;;5071704;28;20187;-83
2023/10/26 03:22:24;;;;;;;1.87;1.77;;;10.00;99.90;;;;;;5071595;28;20437;-86
2023/10/26 03:24:51;;;;;;;3.20;2.90;;;10.00;99.90;;;;;;5073331;28;20463;-85
2023/10/26 03:27:18;;;;;;;1.03;1.00;;;10.00;99.90;;;;;;5073840;28;20197;-83
2023/10/26 03:29:45;;;;;;;1.95;0.95;;;10.00;99.90;;;;;;5074785;28;20441;-84
2023/10/26 03:32:12;;;;;;;0.70;0.70;;;10.00;99.90;;;;;;5074160;28;20186;-83
2023/10/26 03:34:39;;;;;;;0.55;0.40;;;10.00;99.90;;;;;;5074131;28;20190;-85
2023/10/26 03:37:06;;;;;;;9.00;5.68;;;10.00;99.90;;;;;;5073234;28;20201;-82
2023/10/26 03:39:36;;;;;;;1.73;1.67;;;10.00;99.90;;;;;;5073694;28;20221;-85
2023/10/26 03:42:03;;;;;;;2.53;1.63;;;10.00;99.90;;;;;;5088488;28;20428;-84
2023/10/26 03:44:29;;;;;;;0.50;0.40;;;10.00;99.90;;;;;;5085755;28;21115;-84
2023/10/26 03:46:56;;;;;;;2.28;2.17;;;10.00;99.90;;;;;;5086958;28;20277;-84
2023/10/26 03:49:23;;;;;;;0.50;0.40;;;10.00;99.90;;;;;;5094988;28;20194;-83
2023/10/26 03:51:50;;;;;;;2.65;2.45;;;9.90;99.90;;;;;;5094548;28;20200;-84
2023/10/26 03:54:17;;;;;;;0.50;0.40;;;9.90;99.90;;;;;;5087982;28;20197;-85
2023/10/26 03:56:45;;;;;;;1.08;1.08;;;9.90;99.90;;;;;;5082510;28;20209;-81
2023/10/26 03:59:12;;;;;;;0.50;0.40;;;9.90;99.90;;;;;;5073830;28;20203;-82
2023/10/26 04:01:38;;;;;;;2.15;1.98;;;9.90;99.90;;;;;;5073488;28;20433;-83
2023/10/26 04:04:06;;;;;;;0.50;0.50;;;10.00;99.90;;;;;;5078527;28;20194;-84
2023/10/26 04:06:33;;;;;;;0.50;0.50;;;9.90;99.90;;;;;;5093304;28;20611;-83
2023/10/26 04:08:59;;;;;;;0.93;0.93;;;9.90;99.90;;;;;;5094013;28;20427;-82
2023/10/26 04:11:26;;;;;;;4.97;4.60;;;10.00;99.90;;;;;;5093333;28;20720;-82
2023/10/26 04:13:57;;;;;;;0.93;0.93;;;10.00;99.90;;;;;;5093992;28;20197;-84
2023/10/26 04:16:24;;;;;;;1.13;1.13;;;10.00;99.90;;;;;;5093637;28;20597;-83
2023/10/26 04:18:51;;;;;;;1.87;1.37;;;10.00;99.90;;;;;;5093397;28;20210;-82
2023/10/26 04:21:18;;;;;;;10.95;2.15;;;10.00;99.90;;;;;;5093627;28;20428;-82
2023/10/26 04:23:44;;;;;;;0.50;0.40;;;10.10;99.90;;;;;;5093457;28;20200;-80
2023/10/26 04:26:12;;;;;;;0.97;0.97;;;10.10;99.90;;;;;;5093308;28;20530;-83
2023/10/26 04:28:39;;;;;;;0.50;0.40;;;10.10;99.90;;;;;;5093090;28;20477;-81
2023/10/26 04:31:07;;;;;;;0.50;0.40;;;10.10;99.90;;;;;;5093359;28;20431;-82
2023/10/26 04:33:34;;;;;;;8.10;4.63;;;10.10;99.90;;;;;;5093595;28;20807;-82
2023/10/26 04:36:04;;;;;;;1.58;1.58;;;10.10;99.90;;;;;;5091845;28;20821;-82
2023/10/26 04:38:31;;;;;;;0.50;0.40;;;10.10;99.90;;;;;;5092981;28;20237;-84
2023/10/26 04:40:59;;;;;;;0.50;0.40;;;10.10;99.90;;;;;;5075005;28;20190;-81
2023/10/26 04:43:26;;;;;;;0.50;0.40;;;10.10;99.90;;;;;;5074403;28;20186;-82
2023/10/26 04:45:53;;;;;;;0.50;0.40;;;10.10;99.90;;;;;;5084595;28;20205;-80
2023/10/26 04:48:21;;;;;;;0.50;0.40;;;10.10;99.90;;;;;;5080684;28;20436;-81
2023/10/26 04:50:47;;;;;;;0.50;0.40;;;10.10;99.90;;;;;;5080230;28;20436;-83
2023/10/26 04:53:14;;;;;;;1.57;1.47;;;10.10;99.90;;;;;;5083855;28;20526;-83
2023/10/26 04:55:41;;;;;;;0.55;0.55;;;10.10;99.90;;;;;;5079679;28;20460;-82
2023/10/26 04:58:08;;;;;;;0.65;0.65;;;10.20;99.90;;;;;;5091133;28;20201;-83
2023/10/26 05:00:35;;;;;;;0.50;0.50;;;10.20;99.90;;;;;;5080716;28;20198;-83
2023/10/26 05:03:02;;;;;;;2.85;1.20;;;10.20;99.90;;;;;;5081238;28;20541;-83
2023/10/26 05:05:31;;;;;;;1.17;1.07;;;10.20;99.90;;;;;;5097142;28;20704;-82
2023/10/26 05:07:58;;;;;;;0.65;0.65;;;10.10;99.90;;;;;;5085811;28;20446;-80
2023/10/26 05:10:24;;;;;;;0.60;0.60;;;10.10;99.90;;;;;;5085559;28;20654;-83
2023/10/26 05:12:52;;;;;;;0.90;0.90;;;10.10;99.90;;;;;;5079924;28;20437;-82
2023/10/26 05:15:19;;;;;;;0.50;0.40;;;10.00;99.90;;;;;;5082977;28;20496;-83
2023/10/26 05:17:46;;;;;;;1.77;1.77;;;10.10;99.90;;;;;;5087459;28;20437;-81
2023/10/26 05:20:13;;;;;;;0.50;0.40;;;10.10;99.90;;;;;;5089937;28;20482;-82
2023/10/26 05:22:41;;;;;;;0.50;0.50;;;10.10;99.90;;;;;;5089145;28;20436;-81
2023/10/26 05:25:11;;;;;;;0.50;0.40;;;10.10;99.90;;;;;;5097829;28;20459;-82
2023/10/26 05:27:38;;;;;;;2.00;1.80;;;10.10;99.90;;;;;;5088882;28;20448;-78
2023/10/26 05:30:06;;;;;;;0.50;0.50;;;10.10;99.90;;;;;;5089732;28;20455;-82
2023/10/26 05:32:33;;;;;;;1.15;1.15;;;10.10;99.90;;;;;;5081822;28;20634;-83
2023/10/26 05:35:00;;;;;;;0.45;0.40;;;10.20;99.90;;;;;;5078100;28;20221;-82
2023/10/26 05:37:26;;;;;;;0.83;0.80;;;10.20;99.90;;;;;;5085821;28;20199;-81
2023/10/26 05:39:54;;;;;;;0.97;0.97;;;10.10;99.90;;;;;;5076520;28;20473;-83
2023/10/26 05:42:21;;;;;;;2.20;1.47;;;10.10;99.90;;;;;;5085515;28;20445;-83
2023/10/26 05:44:48;;;;;;;0.50;0.40;;;10.20;99.90;;;;;;5078690;28;20444;-82
2023/10/26 05:47:15;;;;;;;7.83;1.67;;;10.10;99.90;;;;;;5089086;28;20439;-81
2023/10/26 05:49:42;;;;;;;0.90;0.87;;;10.10;99.90;;;;;;5098422;28;20524;-83
2023/10/26 05:52:09;;;;;;;2.50;1.97;;;10.10;99.90;;;;;;5097642;28;20446;-81
2023/10/26 05:54:36;;;;;;;0.50;0.40;;;10.10;99.90;;;;;;5091094;22;20584;-83
2023/10/26 05:57:04;;;;;;;0.50;0.40;;;10.10;99.90;;;;;;5066402;28;20195;-83
2023/10/26 05:59:31;;;;;;;1.35;1.25;;;10.10;99.90;;;;;;5066774;28;20210;-83
2023/10/26 06:01:58;;;;;;;1.27;0.73;;;10.10;99.90;;;;;;5064895;28;20194;-81
2023/10/26 06:04:25;;;;;;;1.23;1.23;;;10.00;99.90;;;;;;5070322;28;20459;-82
2023/10/26 06:06:51;;;;;;;0.80;0.67;;;10.00;99.90;;;;;;5076126;28;20944;-81
2023/10/26 06:09:19;;;;;;;5.13;3.40;;;10.10;99.90;;;;;;5076496;28;20437;-81
2023/10/26 06:11:46;;;;;;;0.50;0.40;;;10.10;99.90;;;;;;5076477;28;20440;-81
2023/10/26 06:14:14;;;;;;;0.50;0.40;;;10.10;99.90;;;;;;5077632;28;20221;-82
2023/10/26 06:16:40;;;;;;;0.60;0.60;;;10.00;99.90;;;;;;5076188;28;20441;-78
2023/10/26 06:19:07;;;;;;;1.90;1.80;;;10.10;99.90;;;;;;5077235;28;20871;-82
2023/10/26 06:21:34;;;;;;;0.50;0.40;;;10.00;99.90;;;;;;5075793;28;20448;-82
2023/10/26 06:24:01;;;;;;;0.50;0.40;;;10.00;99.90;;;;;;5075961;28;20222;-81
2023/10/26 06:26:28;;;;;;;3.63;1.90;;;9.90;99.90;;;;;;5075771;28;20201;-82
2023/10/26 06:28:55;;;;;;;0.47;0.40;;;9.90;99.90;;;;;;5075780;28;20432;-81
2023/10/26 06:31:23;;;;;;;0.50;0.40;;;9.90;99.90;;;;;;5075955;28;20201;-82
2023/10/26 06:33:51;;;;;;;9.33;6.17;;;9.90;99.90;;;;;;5076173;28;20520;-82
2023/10/26 06:36:18;;;;;;;0.50;0.40;;;9.90;99.90;;;;;;5076857;28;20531;-82
2023/10/26 06:38:45;;;;;;;0.50;0.40;;;9.90;99.90;;;;;;5075617;28;20437;-79
2023/10/26 06:41:12;;;;;;;0.50;0.50;;;10.00;99.90;;;;;;5075460;28;20201;-81
2023/10/26 06:43:39;;;;;;;0.50;0.40;;;10.00;99.90;;;;;;5075699;28;20456;-82
2023/10/26 06:46:06;;;;;;;0.50;0.50;;;10.00;99.90;;;;;;5076243;28;20480;-81
2023/10/26 06:48:34;;;;;;;0.50;0.40;;;10.00;99.90;;;;;;5076571;28;20436;-82
2023/10/26 06:51:03;;;;;;;1.17;1.17;;;10.00;99.90;;;;;;5075439;28;20436;-84
2023/10/26 06:53:30;;;;;;;0.50;0.40;;;10.10;99.90;;;;;;5075721;28;20683;-81
2023/10/26 06:55:57;;;;;;;1.67;1.57;;;10.10;99.90;;;;;;5075761;28;20460;-82
2023/10/26 06:58:24;;;;;;;8.23;3.20;;;10.10;99.90;;;;;;5075694;28;20539;-81
2023/10/26 07:00:50;;;;;;;0.97;0.97;;;10.10;99.90;;;;;;5076019;28;20472;-80
2023/10/26 07:03:17;;;;;;;0.90;0.90;;;10.10;99.90;;;;;;5076360;28;20441;-82
2023/10/26 07:05:47;;;;;;;0.50;0.40;;;10.10;99.90;;;;;;5075547;28;20460;-80
2023/10/26 07:08:14;;;;;;;0.50;0.40;;;10.10;99.90;;;;;;5076047;28;20515;-81
2023/10/26 07:10:41;;;;;;;0.50;0.40;;;10.10;99.90;;;;;;5075765;28;20455;-81
2023/10/26 07:13:08;;;;;;;2.10;2.00;;;10.10;99.90;;;;;;5075274;28;20433;-84
2023/10/26 07:15:36;;;;;;;0.50;0.40;;;10.10;99.90;;;;;;5076066;28;20226;-83
2023/10/26 07:18:03;;;;;;;1.90;1.90;;;10.10;99.90;;;;;;5076118;28;20449;-83
2023/10/26 07:20:30;;;;;;;4.60;4.20;;;10.10;99.90;;;;;;5076005;28;20473;-83
2023/10/26 07:22:58;;;;;;;0.70;0.70;;;10.10;99.90;;;;;;5075818;28;20451;-83
2023/10/26 07:25:24;;;;;;;2.13;2.03;;;10.10;99.90;;;;;;5075978;28;20471;-84
2023/10/26 07:27:51;;;;;;;0.50;0.40;;;10.10;99.90;;;;;;5074287;28;20436;-82
2023/10/26 07:30:18;;;;;;;1.53;1.50;;;10.20;99.90;;;;;;5075626;28;20433;-81
2023/10/26 07:32:45;;;;;;;0.50;0.40;;;10.20;99.90;;;;;;5075054;28;20449;-85
2023/10/26 07:35:14;;;;;;;6.43;6.03;;;10.20;99.90;;;;;;5067774;28;20474;-84
2023/10/26 07:37:41;;;;;;;0.50;0.40;;;10.20;99.90;;;;;;5075485;28;20459;-81
2023/10/26 07:40:10;;;;;;;0.50;0.40;;;10.20;99.90;;;;;;5075111;28;20483;-82
2023/10/26 07:42:36;;;;;;;0.50;0.40;;;10.20;99.90;;;;;;5074936;28;20482;-81
2023/10/26 07:45:06;;;;;;;0.50;0.40;;;10.30;99.90;;;;;;5074537;28;20222;-82
2023/10/26 07:47:32;;;;;;;0.50;0.40;;;10.30;99.90;;;;;;5075723;28;20437;-81
2023/10/26 07:49:59;;;;;;;5.95;4.88;;;10.30;99.90;;;;;;5075109;28;20428;-82
2023/10/26 07:52:26;;;;;;;2.60;0.93;;;10.30;99.90;;;;;;5076047;28;20207;-84
2023/10/26 07:54:53;;;;;;;0.50;0.40;;;10.30;99.90;;;;;;5075285;28;20226;-82
2023/10/26 07:57:21;;;;;;;0.50;0.40;;;10.40;99.90;;;;;;5074922;28;20536;-81
2023/10/26 07:59:48;;;;;;;0.50;0.40;;;10.50;99.90;;;;;;5075330;28;20222;-82
2023/10/26 08:02:15;;;;;;;0.53;0.50;;;10.50;99.90;;;;;;5058671;28;20471;-82
2023/10/26 08:04:41;;;;;;;0.50;0.40;;;10.60;99.90;;;;;;5074619;28;20457;-80
2023/10/26 08:07:08;;;;;;;2.80;2.60;;;10.60;99.90;;;;;;5073562;28;20221;-81
2023/10/26 08:09:35;;;;;;;0.50;0.50;;;10.70;99.90;;;;;;5074424;28;20440;-81
2023/10/26 08:12:02;;;;;;;1.63;0.82;;;10.80;99.90;;;;;;5073648;28;20436;-83
2023/10/26 08:14:31;;;;;;;0.50;0.40;;;10.70;99.90;;;;;;5075130;28;20222;-82
2023/10/26 08:16:59;;;;;;;2.25;2.15;;;10.80;99.90;;;;;;5074330;28;21027;-81
2023/10/26 08:19:26;;;;;;;2.00;1.90;;;11.00;99.90;;;;;;5074383;28;20681;-80
2023/10/26 08:21:53;;;;;;;0.82;0.82;;;11.00;99.90;;;;;;5074242;28;20686;-80
2023/10/26 08:24:20;;;;;;;4.93;4.57;;;11.70;99.90;;;;;;5079825;28;20236;-84
2023/10/26 08:26:47;;;;;;;0.60;0.60;;;12.70;99.90;;;;;;5079839;28;20458;-82
2023/10/26 08:29:14;;;;;;;4.37;3.43;;;14.10;99.90;;;;;;5079442;28;20448;-84
2023/10/26 08:31:43;;;;;;;3.03;2.80;;;14.90;99.90;;;;;;5079844;28;20456;-83
2023/10/26 08:34:10;;;;;;;2.00;1.90;;;15.70;99.90;;;;;;5079068;28;20523;-83
2023/10/26 08:36:36;;;;;;;1.27;1.17;;;15.90;99.90;;;;;;5079044;28;20963;-81
2023/10/26 08:39:03;;;;;;;1.73;1.63;;;16.20;99.90;;;;;;5083835;28;20438;-80
2023/10/26 08:41:33;;;;;;;3.73;3.40;;;16.50;99.90;;;;;;5083833;28;20475;-81
2023/10/26 08:44:00;;;;;;;1.20;1.10;;;16.40;99.90;;;;;;5071771;28;20464;-83
2023/10/26 08:46:28;;;;;;;0.50;0.50;;;15.90;99.90;;;;;;5080565;28;20444;-79
2023/10/26 08:48:58;;;;;;;0.80;0.73;;;15.20;99.90;;;;;;5079568;28;20436;-82
2023/10/26 08:51:27;;;;;;;3.40;3.20;;;14.60;99.90;;;;;;5079495;28;20432;-81
2023/10/26 08:53:54;;;;;;;6.17;5.50;;;14.30;99.90;;;;;;5078890;28;20954;-81
2023/10/26 08:56:24;;;;;;;4.50;2.73;;;13.80;99.90;;;;;;5079191;28;20540;-83
2023/10/26 08:58:55;;;;;;;2.03;1.90;;;13.60;99.90;;;;;;5077821;28;20441;-82
2023/10/26 09:01:22;;;;;;;14.83;6.13;;;13.20;99.90;;;;;;5077444;28;20827;-82
2023/10/26 09:03:49;;;;;;;0.50;0.40;;;12.80;99.90;;;;;;5077576;28;20444;-82
2023/10/26 09:06:17;;;;;;;1.63;1.10;;;12.70;99.90;;;;;;5077715;28;20439;-81
2023/10/26 09:08:45;;;;;;;0.83;0.83;;;12.90;99.90;;;;;;5078018;28;20519;-81
2023/10/26 09:11:22;;;;;;;1.53;1.43;;;13.00;99.90;;;;;;5078968;28;20441;-82
2023/10/26 09:13:52;;;;;;;12.53;2.53;;;12.90;99.90;;;;;;5078442;28;20441;-82
2023/10/26 09:16:19;;;;;;;2.97;2.87;;;12.70;99.90;;;;;;5078376;28;20490;-82
2023/10/26 09:18:51;;;;;;;0.50;0.50;;;12.60;99.90;;;;;;5078731;28;20479;-79
2023/10/26 09:21:19;;;;;;;0.50;0.40;;;12.50;99.90;;;;;;5077804;28;20526;-83
2023/10/26 09:23:46;;;;;;;3.23;1.93;;;12.40;99.90;;;;;;5069927;28;20448;-83
2023/10/26 09:26:13;;;;;;;3.63;2.80;;;12.30;99.90;;;;;;5077786;28;20437;-82
2023/10/26 09:28:51;;;;;;;0.63;0.63;;;12.20;99.90;;;;;;5077218;28;20530;-82
2023/10/26 09:31:18;;;;;;;1.53;1.43;;;12.10;99.90;;;;;;5076556;28;20440;-82
2023/10/26 09:33:45;;;;;;;1.60;1.50;;;12.00;99.90;;;;;;5077144;28;20813;-83
2023/10/26 09:36:13;;;;;;;15.73;3.13;;;12.00;99.90;;;;;;5076599;28;20450;-82
2023/10/26 09:38:42;;;;;;;1.13;1.03;;;11.90;99.90;;;;;;5076616;28;20494;-82
2023/10/26 09:41:12;;;;;;;10.67;7.00;;;11.90;99.90;;;;;;5076968;28;20560;-82
2023/10/26 09:43:40;;;;;;;0.50;0.40;;;11.80;99.90;;;;;;5076602;28;20500;-79
2023/10/26 09:46:07;;;;;;;2.47;1.67;;;11.60;99.90;;;;;;5076574;28;20548;-82
2023/10/26 09:48:34;;;;;;;4.70;4.00;;;11.60;99.90;;;;;;5076422;28;20947;-81
2023/10/26 09:51:01;;;;;;;2.10;1.90;;;11.50;99.90;;;;;;5076164;28;20833;-81
2023/10/26 09:53:32;;;;;;;10.50;5.10;;;11.50;99.90;;;;;;5076055;28;20435;-82
2023/10/26 09:56:02;;;;;;;5.07;4.67;;;11.90;99.90;;;;;;5076755;28;20537;-82
2023/10/26 09:58:34;;;;;;;2.10;2.00;;;12.20;99.90;;;;;;5076511;28;20448;-81
2023/10/26 10:01:01;;;;;;;1.53;1.33;;;12.40;99.90;;;;;;5076596;28;20475;-80
2023/10/26 10:03:29;;;;;;;0.50;0.40;;;12.50;99.90;;;;;;5076210;28;20452;-82
2023/10/26 10:05:56;;;;;;;4.23;4.00;;;12.50;99.90;;;;;;5076618;28;20904;-82
2023/10/26 10:09:00;;;;;;;5.07;3.23;;;12.60;99.90;;;;;;5076211;28;20433;-82
2023/10/26 10:11:28;;;;;;;7.77;5.67;;;12.70;99.90;;;;;;5075895;28;20431;-82
2023/10/26 10:13:55;;;;;;;15.80;4.53;;;12.70;99.90;;;;;;5076765;28;20464;-80
2023/10/26 10:16:52;;;;;;;2.00;1.90;;;12.70;99.90;;;;;;5076538;28;20435;-81
2023/10/26 10:19:20;;;;;;;0.50;0.50;;;12.70;99.90;;;;;;5074587;28;20441;-82
2023/10/26 10:21:47;;;;;;;0.50;0.40;;;12.90;99.90;;;;;;5070187;28;20473;-82
2023/10/26 10:24:48;;;;;;;0.50;0.43;;;13.00;99.90;;;;;;5074842;28;20453;-82
2023/10/26 10:27:16;;;;;;;5.37;1.50;;;13.50;99.90;;;;;;5076516;28;20439;-80
2023/10/26 10:29:43;;;;;;;2.70;2.20;;;13.90;99.90;;;;;;5076451;28;20440;-81
2023/10/26 10:32:11;;;;;;;1.50;1.40;;;14.10;99.90;;;;;;5076576;28;20546;-82
2023/10/26 10:34:44;;;;;;;4.47;2.83;;;14.20;99.90;;;;;;5075418;28;20832;-81
2023/10/26 10:37:15;;;;;;;4.67;2.33;;;14.40;99.90;;;;;;5075693;28;20437;-81
2023/10/26 10:40:10;;;;;;;0.93;0.80;;;14.50;99.90;;;;;;5076665;28;20528;-82
2023/10/26 10:42:38;;;;;;;4.33;1.90;;;14.70;99.90;;;;;;5061640;28;20433;-81
2023/10/26 10:45:06;;;;;;;0.50;0.40;;;14.80;99.90;;;;;;5067101;28;20459;-82
2023/10/26 10:47:33;;;;;;;2.50;1.50;;;14.70;99.90;;;;;;5072609;28;20441;-82
2023/10/26 10:50:20;;;;;;;2.00;1.90;;;14.70;99.90;;;;;;5067443;28;20457;-80
2023/10/26 10:52:48;;;;;;;0.50;0.47;;;14.70;99.90;;;;;;5081903;28;20800;-80
2023/10/26 10:55:20;;;;;;;1.13;1.03;;;14.60;99.90;;;;;;5074527;28;20518;-82
2023/10/26 10:57:58;;;;;;;0.60;0.50;;;14.50;99.90;;;;;;5069587;28;20888;-82
2023/10/26 11:00:26;;;;;;;3.70;2.73;;;14.30;99.90;;;;;;5075976;28;20486;-82
2023/10/26 11:02:56;;;;;;;0.97;0.97;;;14.20;99.90;;;;;;5075510;28;20439;-79
2023/10/26 11:05:39;;;;;;;2.00;1.33;;;14.20;99.90;;;;;;5075820;28;20488;-82
2023/10/26 11:08:06;;;;;;;0.80;0.80;;;14.10;99.90;;;;;;5075153;28;20504;-81
2023/10/26 11:10:33;;;;;;;0.50;0.40;;;13.90;99.90;;;;;;5075489;28;20433;-82
2023/10/26 11:13:02;;;;;;;2.57;1.97;;;13.80;99.90;;;;;;5076310;28;20511;-82
2023/10/26 11:15:32;;;;;;;4.30;2.83;;;13.80;99.90;;;;;;5073852;28;20518;-82
2023/10/26 11:18:00;;;;;;;0.50;0.40;;;13.60;99.90;;;;;;5074393;28;20856;-80
2023/10/26 11:20:37;;;;;;;1.47;0.97;;;13.40;99.90;;;;;;5078690;28;21009;-81
2023/10/26 11:23:04;;;;;;;0.50;0.40;;;13.50;99.90;;;;;;5079330;28;20440;-83
2023/10/26 11:25:31;;;;;;;0.50;0.50;;;13.60;99.90;;;;;;5070788;28;20477;-81
2023/10/26 11:27:58;;;;;;;0.50;0.40;;;13.60;99.90;;;;;;5077114;28;20436;-82
2023/10/26 11:30:26;;;;;;;0.50;0.40;;;13.50;99.90;;;;;;5077530;28;20437;-81
2023/10/26 11:32:53;;;;;;;0.70;0.50;;;13.60;99.90;;;;;;5071836;28;20515;-78
2023/10/26 11:35:20;;;;;;;0.50;0.40;;;13.60;99.90;;;;;;5073744;28;20460;-81
2023/10/26 11:37:48;;;;;;;1.53;0.83;;;13.60;99.90;;;;;;5068993;28;20873;-81
2023/10/26 11:40:17;;;;;;;5.40;1.63;;;13.70;99.90;;;;;;5066429;28;20469;-82
2023/10/26 11:42:51;;;;;;;1.17;1.07;;;13.80;99.90;;;;;;5068992;28;20950;-84
2023/10/26 11:45:19;;;;;;;0.70;0.50;;;14.00;99.90;;;;;;5074925;28;20525;-81
2023/10/26 11:47:51;;;;;;;0.50;0.40;;;14.20;99.90;;;;;;5077418;28;20441;-79
2023/10/26 11:50:23;;;;;;;0.67;0.67;;;14.30;99.90;;;;;;5080565;28;20508;-82
2023/10/26 11:52:50;;;;;;;0.50;0.40;;;14.10;99.90;;;;;;5077378;28;20447;-83
2023/10/26 11:55:17;;;;;;;0.50;0.40;;;14.10;99.90;;;;;;5066390;28;20556;-83
2023/10/26 11:57:45;;;;;;;0.53;0.53;;;14.10;99.90;;;;;;5075744;28;20989;-83
2023/10/26 12:00:13;;;;;;;0.50;0.40;;;14.00;99.90;;;;;;5069106;28;20437;-83
2023/10/26 12:02:39;;;;;;;0.50;0.40;;;13.90;99.90;;;;;;5077467;28;20432;-84
2023/10/26 12:05:09;;;;;;;0.50;0.40;;;13.70;99.90;;;;;;5079176;28;20984;-84
2023/10/26 12:07:36;;;;;;;0.50;0.40;;;13.50;99.90;;;;;;5057821;28;20440;-83
2023/10/26 12:10:04;;;;;;;0.50;0.50;;;13.40;99.90;;;;;;5072248;28;20441;-83
2023/10/26 12:12:31;;;;;;;0.50;0.40;;;13.50;99.90;;;;;;5069277;28;20433;-83
2023/10/26 12:14:57;;;;;;;0.60;0.60;;;13.30;99.90;;;;;;5078051;28;20466;-83
2023/10/26 12:17:24;;;;;;;0.50;0.40;;;13.40;99.90;;;;;;5078304;28;20956;-83
2023/10/26 12:19:51;;;;;;;0.60;0.60;;;13.30;99.90;;;;;;5079920;28;21022;-81
2023/10/26 12:22:20;;;;;;;1.67;1.57;;;13.40;99.90;;;;;;5078816;28;20476;-81
2023/10/26 12:24:47;;;;;;;0.50;0.40;;;13.40;99.90;;;;;;5066488;28;20462;-81
2023/10/26 12:27:16;;;;;;;0.60;0.50;;;13.40;99.90;;;;;;5069670;28;20491;-81
2023/10/26 12:29:43;;;;;;;1.37;0.80;;;13.30;99.90;;;;;;5080658;28;20530;-83
2023/10/26 12:32:10;;;;;;;0.50;0.40;;;13.30;99.90;;;;;;5081026;28;20486;-82
2023/10/26 12:34:36;;;;;;;0.80;0.80;;;13.30;99.90;;;;;;5080884;28;20459;-83
2023/10/26 12:37:04;;;;;;;0.50;0.50;;;13.30;99.90;;;;;;5078365;28;20974;-84
2023/10/26 12:39:32;;;;;;;0.50;0.40;;;13.10;99.90;;;;;;5078383;28;20451;-81
2023/10/26 12:41:59;;;;;;;0.50;0.40;;;13.20;99.90;;;;;;5071956;28;20475;-82
2023/10/26 12:44:26;;;;;;;1.27;1.17;;;13.20;99.90;;;;;;5077220;28;20479;-83
2023/10/26 12:46:54;;;;;;;0.50;0.40;;;13.20;99.90;;;;;;5073083;28;20444;-82
2023/10/26 12:49:22;;;;;;;0.50;0.40;;;13.10;99.90;;;;;;5058942;28;20783;-84
2023/10/26 12:51:48;;;;;;;0.50;0.40;;;13.10;99.90;;;;;;5058786;28;20483;-82